sensor_id;sensor_type;location;lat;lon;timestamp;P1;durP1;ratioP1;P2;durP2;ratioP2
11677;SDS011;5895;41.950;24.372;2023-05-18T00:02:01;8.73;;;2.65;;
11677;SDS011;5895;41.950;24.372;2023-05-18T00:04:30;4.90;;;2.33;;
11677;SDS011;5895;41.950;24.372;2023-05-18T00:06:58;5.65;;;2.65;;
11677;SDS011;5895;41.950;24.372;2023-05-18T00:09:27;5.28;;;2.80;;
11677;SDS011;5895;41.950;24.372;2023-05-18T00:11:56;5.55;;;2.80;;
11677;SDS011;5895;41.950;24.372;2023-05-18T00:14:24;6.97;;;2.75;;
11677;SDS011;5895;41.950;24.372;2023-05-18T00:16:56;4.65;;;2.70;;
11677;SDS011;5895;41.950;24.372;2023-05-18T00:19:26;3.65;;;2.38;;
11677;SDS011;5895;41.950;24.372;2023-05-18T00:21:54;3.47;;;2.47;;
11677;SDS011;5895;41.950;24.372;2023-05-18T00:24:22;3.17;;;2.40;;
11677;SDS011;5895;41.950;24.372;2023-05-18T00:26:50;3.72;;;2.25;;
11677;SDS011;5895;41.950;24.372;2023-05-18T00:29:17;4.97;;;2.63;;
11677;SDS011;5895;41.950;24.372;2023-05-18T00:31:44;8.82;;;2.47;;
11677;SDS011;5895;41.950;24.372;2023-05-18T00:34:13;5.80;;;2.38;;
11677;SDS011;5895;41.950;24.372;2023-05-18T00:36:41;3.30;;;2.50;;
11677;SDS011;5895;41.950;24.372;2023-05-18T00:39:09;5.10;;;2.50;;
11677;SDS011;5895;41.950;24.372;2023-05-18T00:41:36;6.32;;;2.67;;
11677;SDS011;5895;41.950;24.372;2023-05-18T00:44:04;5.10;;;2.40;;
11677;SDS011;5895;41.950;24.372;2023-05-18T00:46:31;3.40;;;1.83;;
11677;SDS011;5895;41.950;24.372;2023-05-18T00:48:59;3.45;;;2.45;;
11677;SDS011;5895;41.950;24.372;2023-05-18T00:51:28;3.78;;;2.38;;
11677;SDS011;5895;41.950;24.372;2023-05-18T00:53:59;6.78;;;2.30;;
11677;SDS011;5895;41.950;24.372;2023-05-18T00:56:28;4.82;;;2.35;;
11677;SDS011;5895;41.950;24.372;2023-05-18T00:58:58;6.07;;;2.45;;
11677;SDS011;5895;41.950;24.372;2023-05-18T01:01:28;4.85;;;2.60;;
11677;SDS011;5895;41.950;24.372;2023-05-18T01:03:58;2.95;;;2.25;;
11677;SDS011;5895;41.950;24.372;2023-05-18T01:06:29;4.55;;;2.30;;
11677;SDS011;5895;41.950;24.372;2023-05-18T01:09:00;4.80;;;2.17;;
11677;SDS011;5895;41.950;24.372;2023-05-18T01:11:30;5.28;;;2.13;;
11677;SDS011;5895;41.950;24.372;2023-05-18T01:14:05;4.38;;;2.05;;
11677;SDS011;5895;41.950;24.372;2023-05-18T01:16:38;2.90;;;2.25;;
11677;SDS011;5895;41.950;24.372;2023-05-18T01:19:17;2.55;;;2.10;;
11677;SDS011;5895;41.950;24.372;2023-05-18T01:22:06;4.68;;;2.47;;
11677;SDS011;5895;41.950;24.372;2023-05-18T01:24:55;10.57;;;2.40;;
11677;SDS011;5895;41.950;24.372;2023-05-18T01:27:30;4.22;;;2.38;;
11677;SDS011;5895;41.950;24.372;2023-05-18T01:30:02;7.88;;;2.75;;
11677;SDS011;5895;41.950;24.372;2023-05-18T01:32:30;5.28;;;2.58;;
11677;SDS011;5895;41.950;24.372;2023-05-18T01:35:07;5.28;;;2.88;;
11677;SDS011;5895;41.950;24.372;2023-05-18T01:37:35;4.70;;;3.47;;
11677;SDS011;5895;41.950;24.372;2023-05-18T01:40:02;5.82;;;3.33;;
11677;SDS011;5895;41.950;24.372;2023-05-18T01:42:33;7.07;;;3.30;;
11677;SDS011;5895;41.950;24.372;2023-05-18T01:45:10;5.70;;;3.00;;
11677;SDS011;5895;41.950;24.372;2023-05-18T01:47:45;6.90;;;2.40;;
11677;SDS011;5895;41.950;24.372;2023-05-18T01:50:15;5.07;;;2.60;;
11677;SDS011;5895;41.950;24.372;2023-05-18T01:52:45;7.40;;;2.35;;
11677;SDS011;5895;41.950;24.372;2023-05-18T01:55:17;5.40;;;2.70;;
11677;SDS011;5895;41.950;24.372;2023-05-18T01:57:48;7.40;;;3.15;;
11677;SDS011;5895;41.950;24.372;2023-05-18T02:00:18;5.38;;;2.83;;
11677;SDS011;5895;41.950;24.372;2023-05-18T02:02:47;7.18;;;2.53;;
11677;SDS011;5895;41.950;24.372;2023-05-18T02:05:15;4.68;;;2.42;;
11677;SDS011;5895;41.950;24.372;2023-05-18T02:07:42;3.40;;;2.28;;
11677;SDS011;5895;41.950;24.372;2023-05-18T02:10:11;3.83;;;2.40;;
11677;SDS011;5895;41.950;24.372;2023-05-18T02:12:39;6.43;;;2.50;;
11677;SDS011;5895;41.950;24.372;2023-05-18T02:15:09;7.57;;;2.70;;
11677;SDS011;5895;41.950;24.372;2023-05-18T02:17:36;5.25;;;2.50;;
11677;SDS011;5895;41.950;24.372;2023-05-18T02:20:04;3.78;;;2.70;;
11677;SDS011;5895;41.950;24.372;2023-05-18T02:22:33;5.10;;;2.63;;
11677;SDS011;5895;41.950;24.372;2023-05-18T02:25:01;4.90;;;2.47;;
11677;SDS011;5895;41.950;24.372;2023-05-18T02:27:29;4.47;;;2.75;;
11677;SDS011;5895;41.950;24.372;2023-05-18T02:29:56;3.38;;;2.55;;
11677;SDS011;5895;41.950;24.372;2023-05-18T02:32:25;7.50;;;2.90;;
11677;SDS011;5895;41.950;24.372;2023-05-18T02:34:53;6.85;;;3.00;;
11677;SDS011;5895;41.950;24.372;2023-05-18T02:37:20;8.82;;;2.65;;
11677;SDS011;5895;41.950;24.372;2023-05-18T02:39:48;6.40;;;2.58;;
11677;SDS011;5895;41.950;24.372;2023-05-18T02:42:15;5.07;;;3.00;;
11677;SDS011;5895;41.950;24.372;2023-05-18T02:44:43;7.93;;;2.90;;
11677;SDS011;5895;41.950;24.372;2023-05-18T02:47:10;3.60;;;2.47;;
11677;SDS011;5895;41.950;24.372;2023-05-18T02:49:39;3.60;;;2.60;;
11677;SDS011;5895;41.950;24.372;2023-05-18T02:52:07;4.72;;;2.60;;
11677;SDS011;5895;41.950;24.372;2023-05-18T02:54:34;7.50;;;2.92;;
11677;SDS011;5895;41.950;24.372;2023-05-18T02:57:02;3.67;;;2.20;;
11677;SDS011;5895;41.950;24.372;2023-05-18T02:59:29;5.03;;;2.85;;
11677;SDS011;5895;41.950;24.372;2023-05-18T03:01:57;3.78;;;2.58;;
11677;SDS011;5895;41.950;24.372;2023-05-18T03:04:24;6.65;;;2.58;;
11677;SDS011;5895;41.950;24.372;2023-05-18T03:06:53;4.18;;;2.85;;
11677;SDS011;5895;41.950;24.372;2023-05-18T03:09:21;5.63;;;2.80;;
11677;SDS011;5895;41.950;24.372;2023-05-18T03:11:49;7.05;;;2.85;;
11677;SDS011;5895;41.950;24.372;2023-05-18T03:14:17;5.65;;;2.90;;
11677;SDS011;5895;41.950;24.372;2023-05-18T03:16:45;5.72;;;3.10;;
11677;SDS011;5895;41.950;24.372;2023-05-18T03:19:12;4.28;;;2.60;;
11677;SDS011;5895;41.950;24.372;2023-05-18T03:21:40;5.28;;;3.40;;
11677;SDS011;5895;41.950;24.372;2023-05-18T03:24:09;3.53;;;2.95;;
11677;SDS011;5895;41.950;24.372;2023-05-18T03:26:39;9.52;;;3.92;;
11677;SDS011;5895;41.950;24.372;2023-05-18T03:29:08;6.13;;;4.63;;
11677;SDS011;5895;41.950;24.372;2023-05-18T03:31:37;5.63;;;4.22;;
11677;SDS011;5895;41.950;24.372;2023-05-18T03:34:05;5.18;;;4.20;;
11677;SDS011;5895;41.950;24.372;2023-05-18T03:36:32;9.38;;;5.18;;
11677;SDS011;5895;41.950;24.372;2023-05-18T03:39:02;6.95;;;4.85;;
11677;SDS011;5895;41.950;24.372;2023-05-18T03:41:31;6.72;;;4.82;;
11677;SDS011;5895;41.950;24.372;2023-05-18T03:43:59;6.25;;;4.47;;
11677;SDS011;5895;41.950;24.372;2023-05-18T03:46:26;7.68;;;4.70;;
11677;SDS011;5895;41.950;24.372;2023-05-18T03:48:54;9.38;;;7.30;;
11677;SDS011;5895;41.950;24.372;2023-05-18T03:51:22;15.35;;;7.10;;
11677;SDS011;5895;41.950;24.372;2023-05-18T03:53:51;10.88;;;7.38;;
11677;SDS011;5895;41.950;24.372;2023-05-18T03:56:18;9.77;;;7.43;;
11677;SDS011;5895;41.950;24.372;2023-05-18T03:58:48;14.07;;;7.85;;
11677;SDS011;5895;41.950;24.372;2023-05-18T04:01:17;11.93;;;7.05;;
11677;SDS011;5895;41.950;24.372;2023-05-18T04:03:48;10.40;;;5.93;;
11677;SDS011;5895;41.950;24.372;2023-05-18T04:06:15;7.85;;;5.82;;
11677;SDS011;5895;41.950;24.372;2023-05-18T04:08:46;8.80;;;4.82;;
11677;SDS011;5895;41.950;24.372;2023-05-18T04:11:14;7.70;;;6.18;;
11677;SDS011;5895;41.950;24.372;2023-05-18T04:13:41;9.98;;;8.15;;
11677;SDS011;5895;41.950;24.372;2023-05-18T04:16:10;9.95;;;6.35;;
11677;SDS011;5895;41.950;24.372;2023-05-18T04:18:38;11.52;;;7.40;;
11677;SDS011;5895;41.950;24.372;2023-05-18T04:21:05;378.77;;;14.55;;
11677;SDS011;5895;41.950;24.372;2023-05-18T04:23:32;74.55;;;12.02;;
11677;SDS011;5895;41.950;24.372;2023-05-18T04:26:06;55.22;;;8.57;;
11677;SDS011;5895;41.950;24.372;2023-05-18T04:28:35;21.98;;;6.93;;
11677;SDS011;5895;41.950;24.372;2023-05-18T04:31:03;163.43;;;9.63;;
11677;SDS011;5895;41.950;24.372;2023-05-18T04:33:32;17.13;;;7.00;;
11677;SDS011;5895;41.950;24.372;2023-05-18T04:35:59;14.10;;;9.43;;
11677;SDS011;5895;41.950;24.372;2023-05-18T04:38:29;12.93;;;10.00;;
11677;SDS011;5895;41.950;24.372;2023-05-18T04:40:56;16.83;;;13.60;;
11677;SDS011;5895;41.950;24.372;2023-05-18T04:43:24;23.58;;;10.07;;
11677;SDS011;5895;41.950;24.372;2023-05-18T04:45:53;23.02;;;9.40;;
11677;SDS011;5895;41.950;24.372;2023-05-18T04:48:23;16.42;;;6.75;;
11677;SDS011;5895;41.950;24.372;2023-05-18T04:50:51;13.48;;;5.60;;
11677;SDS011;5895;41.950;24.372;2023-05-18T04:53:20;11.85;;;5.00;;
11677;SDS011;5895;41.950;24.372;2023-05-18T04:55:47;58.08;;;7.43;;
11677;SDS011;5895;41.950;24.372;2023-05-18T04:58:15;4.63;;;4.15;;
11677;SDS011;5895;41.950;24.372;2023-05-18T05:00:43;10.73;;;4.07;;
11677;SDS011;5895;41.950;24.372;2023-05-18T05:03:10;177.43;;;9.50;;
11677;SDS011;5895;41.950;24.372;2023-05-18T05:05:37;21.40;;;6.00;;
11677;SDS011;5895;41.950;24.372;2023-05-18T05:08:06;381.95;;;15.90;;
11677;SDS011;5895;41.950;24.372;2023-05-18T05:10:34;236.70;;;12.05;;
11677;SDS011;5895;41.950;24.372;2023-05-18T05:13:01;127.10;;;8.35;;
11677;SDS011;5895;41.950;24.372;2023-05-18T05:15:29;143.80;;;8.75;;
11677;SDS011;5895;41.950;24.372;2023-05-18T05:17:56;281.15;;;12.63;;
11677;SDS011;5895;41.950;24.372;2023-05-18T05:20:24;498.80;;;15.52;;
11677;SDS011;5895;41.950;24.372;2023-05-18T05:22:51;138.60;;;9.98;;
11677;SDS011;5895;41.950;24.372;2023-05-18T05:25:21;113.43;;;9.00;;
11677;SDS011;5895;41.950;24.372;2023-05-18T05:27:48;234.57;;;13.10;;
11677;SDS011;5895;41.950;24.372;2023-05-18T05:30:15;94.68;;;8.73;;
11677;SDS011;5895;41.950;24.372;2023-05-18T05:32:43;400.75;;;13.73;;
11677;SDS011;5895;41.950;24.372;2023-05-18T05:35:10;479.80;;;15.15;;
11677;SDS011;5895;41.950;24.372;2023-05-18T05:37:37;118.40;;;9.32;;
11677;SDS011;5895;41.950;24.372;2023-05-18T05:40:06;361.08;;;15.20;;
11677;SDS011;5895;41.950;24.372;2023-05-18T05:42:35;510.98;;;17.13;;
11677;SDS011;5895;41.950;24.372;2023-05-18T05:45:03;209.48;;;11.18;;
11677;SDS011;5895;41.950;24.372;2023-05-18T05:47:31;140.32;;;9.50;;
11677;SDS011;5895;41.950;24.372;2023-05-18T05:49:59;248.05;;;12.93;;
11677;SDS011;5895;41.950;24.372;2023-05-18T05:52:26;121.03;;;8.70;;
11677;SDS011;5895;41.950;24.372;2023-05-18T05:54:54;555.10;;;18.58;;
11677;SDS011;5895;41.950;24.372;2023-05-18T05:57:21;106.43;;;11.25;;
11677;SDS011;5895;41.950;24.372;2023-05-18T05:59:50;463.55;;;19.85;;
11677;SDS011;5895;41.950;24.372;2023-05-18T06:02:18;184.20;;;11.50;;
11677;SDS011;5895;41.950;24.372;2023-05-18T06:04:45;267.38;;;10.70;;
11677;SDS011;5895;41.950;24.372;2023-05-18T06:07:13;361.83;;;14.07;;
11677;SDS011;5895;41.950;24.372;2023-05-18T06:09:40;178.45;;;9.27;;
11677;SDS011;5895;41.950;24.372;2023-05-18T06:12:08;193.20;;;9.10;;
11677;SDS011;5895;41.950;24.372;2023-05-18T06:14:36;436.85;;;15.10;;
11677;SDS011;5895;41.950;24.372;2023-05-18T06:17:05;12.75;;;3.00;;
11677;SDS011;5895;41.950;24.372;2023-05-18T06:19:32;65.05;;;4.75;;
11677;SDS011;5895;41.950;24.372;2023-05-18T06:22:00;222.45;;;8.52;;
11677;SDS011;5895;41.950;24.372;2023-05-18T06:24:27;156.88;;;10.15;;
11677;SDS011;5895;41.950;24.372;2023-05-18T06:26:55;151.23;;;8.18;;
11677;SDS011;5895;41.950;24.372;2023-05-18T06:29:22;18.48;;;3.85;;
11677;SDS011;5895;41.950;24.372;2023-05-18T06:31:49;26.73;;;3.58;;
11677;SDS011;5895;41.950;24.372;2023-05-18T06:34:18;4.18;;;2.00;;
11677;SDS011;5895;41.950;24.372;2023-05-18T06:36:46;2.45;;;2.25;;
11677;SDS011;5895;41.950;24.372;2023-05-18T06:39:13;1.73;;;1.63;;
11677;SDS011;5895;41.950;24.372;2023-05-18T06:41:40;2.53;;;1.70;;
11677;SDS011;5895;41.950;24.372;2023-05-18T06:44:09;1.77;;;1.60;;
11677;SDS011;5895;41.950;24.372;2023-05-18T06:46:36;2.03;;;1.83;;
11677;SDS011;5895;41.950;24.372;2023-05-18T06:49:04;2.10;;;1.90;;
11677;SDS011;5895;41.950;24.372;2023-05-18T06:51:33;1.83;;;1.70;;
11677;SDS011;5895;41.950;24.372;2023-05-18T06:54:00;2.13;;;1.92;;
11677;SDS011;5895;41.950;24.372;2023-05-18T06:56:27;1.60;;;1.50;;
11677;SDS011;5895;41.950;24.372;2023-05-18T06:58:55;1.60;;;1.50;;
11677;SDS011;5895;41.950;24.372;2023-05-18T07:01:22;1.52;;;1.42;;
11677;SDS011;5895;41.950;24.372;2023-05-18T07:03:50;1.40;;;1.30;;
11677;SDS011;5895;41.950;24.372;2023-05-18T07:06:17;1.58;;;1.48;;
11677;SDS011;5895;41.950;24.372;2023-05-18T07:08:46;1.42;;;1.33;;
11677;SDS011;5895;41.950;24.372;2023-05-18T07:11:14;1.38;;;1.27;;
11677;SDS011;5895;41.950;24.372;2023-05-18T07:13:41;1.30;;;1.20;;
11677;SDS011;5895;41.950;24.372;2023-05-18T07:16:08;1.60;;;1.50;;
11677;SDS011;5895;41.950;24.372;2023-05-18T07:18:36;1.30;;;1.10;;
11677;SDS011;5895;41.950;24.372;2023-05-18T07:21:06;2.55;;;2.35;;
11677;SDS011;5895;41.950;24.372;2023-05-18T07:23:33;3.10;;;2.90;;
11677;SDS011;5895;41.950;24.372;2023-05-18T07:26:02;1.80;;;1.70;;
11677;SDS011;5895;41.950;24.372;2023-05-18T07:28:32;1.77;;;1.55;;
11677;SDS011;5895;41.950;24.372;2023-05-18T07:30:59;1.73;;;1.63;;
11677;SDS011;5895;41.950;24.372;2023-05-18T07:33:27;1.50;;;1.40;;
11677;SDS011;5895;41.950;24.372;2023-05-18T07:35:54;2.50;;;2.30;;
11677;SDS011;5895;41.950;24.372;2023-05-18T07:38:21;2.33;;;2.13;;
11677;SDS011;5895;41.950;24.372;2023-05-18T07:40:49;3.65;;;3.03;;
11677;SDS011;5895;41.950;24.372;2023-05-18T07:43:18;1.25;;;1.15;;
11677;SDS011;5895;41.950;24.372;2023-05-18T07:45:45;0.80;;;0.80;;
11677;SDS011;5895;41.950;24.372;2023-05-18T07:48:12;0.90;;;0.90;;
11677;SDS011;5895;41.950;24.372;2023-05-18T07:50:40;0.88;;;0.88;;
11677;SDS011;5895;41.950;24.372;2023-05-18T07:53:08;1.40;;;1.10;;
11677;SDS011;5895;41.950;24.372;2023-05-18T07:55:35;2.50;;;1.90;;
11677;SDS011;5895;41.950;24.372;2023-05-18T07:58:02;2.42;;;2.22;;
11677;SDS011;5895;41.950;24.372;2023-05-18T08:00:32;4.57;;;2.08;;
11677;SDS011;5895;41.950;24.372;2023-05-18T08:02:59;3.22;;;1.92;;
11677;SDS011;5895;41.950;24.372;2023-05-18T08:05:27;2.90;;;2.70;;
11677;SDS011;5895;41.950;24.372;2023-05-18T08:07:54;2.00;;;1.90;;
11677;SDS011;5895;41.950;24.372;2023-05-18T08:10:21;5.95;;;1.70;;
11677;SDS011;5895;41.950;24.372;2023-05-18T08:12:49;8.27;;;2.25;;
11677;SDS011;5895;41.950;24.372;2023-05-18T08:15:17;4.18;;;2.28;;
11677;SDS011;5895;41.950;24.372;2023-05-18T08:17:45;9.68;;;2.03;;
11677;SDS011;5895;41.950;24.372;2023-05-18T08:20:13;12.38;;;1.90;;
11677;SDS011;5895;41.950;24.372;2023-05-18T08:22:41;1.20;;;1.10;;
11677;SDS011;5895;41.950;24.372;2023-05-18T08:25:08;2.10;;;1.90;;
11677;SDS011;5895;41.950;24.372;2023-05-18T08:27:36;1.40;;;1.30;;
11677;SDS011;5895;41.950;24.372;2023-05-18T08:30:05;1.17;;;1.08;;
11677;SDS011;5895;41.950;24.372;2023-05-18T08:32:33;3.38;;;1.52;;
11677;SDS011;5895;41.950;24.372;2023-05-18T08:35:03;2.03;;;1.92;;
11677;SDS011;5895;41.950;24.372;2023-05-18T08:37:32;2.50;;;2.05;;
11677;SDS011;5895;41.950;24.372;2023-05-18T08:40:01;2.47;;;2.08;;
11677;SDS011;5895;41.950;24.372;2023-05-18T08:42:32;2.80;;;2.60;;
11677;SDS011;5895;41.950;24.372;2023-05-18T08:45:05;4.68;;;2.45;;
11677;SDS011;5895;41.950;24.372;2023-05-18T08:47:37;3.55;;;2.55;;
11677;SDS011;5895;41.950;24.372;2023-05-18T08:50:07;3.92;;;2.88;;
11677;SDS011;5895;41.950;24.372;2023-05-18T08:52:41;2.85;;;2.60;;
11677;SDS011;5895;41.950;24.372;2023-05-18T08:55:12;4.38;;;3.45;;
11677;SDS011;5895;41.950;24.372;2023-05-18T08:57:41;2.97;;;2.70;;
11677;SDS011;5895;41.950;24.372;2023-05-18T09:00:14;3.50;;;3.00;;
11677;SDS011;5895;41.950;24.372;2023-05-18T09:02:42;4.60;;;3.45;;
11677;SDS011;5895;41.950;24.372;2023-05-18T09:05:13;7.10;;;4.10;;
11677;SDS011;5895;41.950;24.372;2023-05-18T09:07:41;6.22;;;3.35;;
11677;SDS011;5895;41.950;24.372;2023-05-18T09:10:09;5.22;;;3.60;;
11677;SDS011;5895;41.950;24.372;2023-05-18T09:12:37;5.70;;;4.78;;
11677;SDS011;5895;41.950;24.372;2023-05-18T09:15:07;7.18;;;3.70;;
11677;SDS011;5895;41.950;24.372;2023-05-18T09:17:36;5.10;;;4.22;;
11677;SDS011;5895;41.950;24.372;2023-05-18T09:20:04;4.50;;;4.03;;
11677;SDS011;5895;41.950;24.372;2023-05-18T09:22:34;6.38;;;4.55;;
11677;SDS011;5895;41.950;24.372;2023-05-18T09:25:05;5.35;;;4.00;;
11677;SDS011;5895;41.950;24.372;2023-05-18T09:27:35;4.35;;;3.70;;
11677;SDS011;5895;41.950;24.372;2023-05-18T09:30:03;4.57;;;3.40;;
11677;SDS011;5895;41.950;24.372;2023-05-18T09:32:33;7.38;;;4.88;;
11677;SDS011;5895;41.950;24.372;2023-05-18T09:35:04;5.45;;;4.28;;
11677;SDS011;5895;41.950;24.372;2023-05-18T09:37:34;8.05;;;5.63;;
11677;SDS011;5895;41.950;24.372;2023-05-18T09:40:02;7.25;;;4.30;;
11677;SDS011;5895;41.950;24.372;2023-05-18T09:42:34;4.15;;;3.67;;
11677;SDS011;5895;41.950;24.372;2023-05-18T09:45:02;4.35;;;3.80;;
11677;SDS011;5895;41.950;24.372;2023-05-18T09:47:31;5.68;;;3.67;;
11677;SDS011;5895;41.950;24.372;2023-05-18T09:49:59;4.85;;;4.00;;
11677;SDS011;5895;41.950;24.372;2023-05-18T09:52:27;5.90;;;4.25;;
11677;SDS011;5895;41.950;24.372;2023-05-18T09:54:58;6.47;;;4.78;;
11677;SDS011;5895;41.950;24.372;2023-05-18T10:08:36;5.07;;;2.60;;
11677;SDS011;5895;41.950;24.372;2023-05-18T10:11:03;7.43;;;5.65;;
11677;SDS011;5895;41.950;24.372;2023-05-18T10:13:31;6.07;;;3.40;;
11677;SDS011;5895;41.950;24.372;2023-05-18T10:16:00;4.40;;;3.42;;
11677;SDS011;5895;41.950;24.372;2023-05-18T10:18:29;5.85;;;3.40;;
11677;SDS011;5895;41.950;24.372;2023-05-18T10:20:59;2.83;;;2.63;;
11677;SDS011;5895;41.950;24.372;2023-05-18T10:23:29;3.80;;;2.72;;
11677;SDS011;5895;41.950;24.372;2023-05-18T10:25:58;5.07;;;2.40;;
11677;SDS011;5895;41.950;24.372;2023-05-18T10:28:27;4.70;;;2.78;;
11677;SDS011;5895;41.950;24.372;2023-05-18T10:30:58;3.08;;;2.42;;
11677;SDS011;5895;41.950;24.372;2023-05-18T10:33:26;2.90;;;2.33;;
11677;SDS011;5895;41.950;24.372;2023-05-18T10:35:54;5.22;;;3.88;;
11677;SDS011;5895;41.950;24.372;2023-05-18T10:38:21;4.07;;;2.92;;
11677;SDS011;5895;41.950;24.372;2023-05-18T10:40:50;2.83;;;2.53;;
11677;SDS011;5895;41.950;24.372;2023-05-18T10:43:22;4.78;;;3.65;;
11677;SDS011;5895;41.950;24.372;2023-05-18T10:45:52;5.15;;;2.90;;
11677;SDS011;5895;41.950;24.372;2023-05-18T10:48:21;3.30;;;3.00;;
11677;SDS011;5895;41.950;24.372;2023-05-18T10:50:50;7.43;;;3.05;;
11677;SDS011;5895;41.950;24.372;2023-05-18T10:53:18;5.22;;;2.42;;
11677;SDS011;5895;41.950;24.372;2023-05-18T10:55:46;5.55;;;2.90;;
11677;SDS011;5895;41.950;24.372;2023-05-18T10:58:14;4.03;;;3.22;;
11677;SDS011;5895;41.950;24.372;2023-05-18T11:00:47;3.40;;;3.00;;
11677;SDS011;5895;41.950;24.372;2023-05-18T11:03:16;2.95;;;2.55;;
11677;SDS011;5895;41.950;24.372;2023-05-18T11:05:48;5.15;;;3.70;;
11677;SDS011;5895;41.950;24.372;2023-05-18T11:08:25;6.20;;;4.60;;
11677;SDS011;5895;41.950;24.372;2023-05-18T11:10:59;6.47;;;3.50;;
11677;SDS011;5895;41.950;24.372;2023-05-18T11:13:28;3.30;;;3.00;;
11677;SDS011;5895;41.950;24.372;2023-05-18T11:16:07;5.40;;;3.45;;
11677;SDS011;5895;41.950;24.372;2023-05-18T11:18:38;5.10;;;2.72;;
11677;SDS011;5895;41.950;24.372;2023-05-18T11:21:19;5.45;;;3.70;;
11677;SDS011;5895;41.950;24.372;2023-05-18T11:26:46;3.45;;;3.08;;
11677;SDS011;5895;41.950;24.372;2023-05-18T11:29:15;6.68;;;2.85;;
11677;SDS011;5895;41.950;24.372;2023-05-18T11:31:45;4.95;;;4.25;;
11677;SDS011;5895;41.950;24.372;2023-05-18T11:37:09;4.35;;;3.83;;
11677;SDS011;5895;41.950;24.372;2023-05-18T11:39:36;3.53;;;3.22;;
11677;SDS011;5895;41.950;24.372;2023-05-18T11:42:07;5.15;;;2.90;;
11677;SDS011;5895;41.950;24.372;2023-05-18T11:44:35;4.93;;;3.28;;
11677;SDS011;5895;41.950;24.372;2023-05-18T11:47:07;4.15;;;3.72;;
11677;SDS011;5895;41.950;24.372;2023-05-18T11:49:35;7.18;;;3.00;;
11677;SDS011;5895;41.950;24.372;2023-05-18T11:52:07;5.35;;;3.45;;
11677;SDS011;5895;41.950;24.372;2023-05-18T11:54:42;6.18;;;4.30;;
11677;SDS011;5895;41.950;24.372;2023-05-18T11:57:11;5.30;;;3.47;;
11677;SDS011;5895;41.950;24.372;2023-05-18T11:59:41;8.43;;;3.33;;
11677;SDS011;5895;41.950;24.372;2023-05-18T12:02:12;8.27;;;3.53;;
11677;SDS011;5895;41.950;24.372;2023-05-18T12:04:45;4.22;;;3.83;;
11677;SDS011;5895;41.950;24.372;2023-05-18T12:07:15;8.43;;;3.90;;
11677;SDS011;5895;41.950;24.372;2023-05-18T12:09:44;5.03;;;3.00;;
11677;SDS011;5895;41.950;24.372;2023-05-18T12:12:12;6.20;;;3.63;;
11677;SDS011;5895;41.950;24.372;2023-05-18T12:14:41;4.10;;;3.10;;
11677;SDS011;5895;41.950;24.372;2023-05-18T12:17:09;9.00;;;4.70;;
11677;SDS011;5895;41.950;24.372;2023-05-18T12:19:40;6.70;;;5.13;;
11677;SDS011;5895;41.950;24.372;2023-05-18T12:22:08;5.28;;;4.30;;
11677;SDS011;5895;41.950;24.372;2023-05-18T12:24:36;5.85;;;4.20;;
11677;SDS011;5895;41.950;24.372;2023-05-18T12:27:04;5.50;;;4.15;;
11677;SDS011;5895;41.950;24.372;2023-05-18T12:29:33;4.15;;;3.72;;
11677;SDS011;5895;41.950;24.372;2023-05-18T12:32:06;6.03;;;3.90;;
11677;SDS011;5895;41.950;24.372;2023-05-18T12:34:35;6.75;;;3.63;;
11677;SDS011;5895;41.950;24.372;2023-05-18T12:37:04;6.70;;;5.03;;
11677;SDS011;5895;41.950;24.372;2023-05-18T12:39:32;5.00;;;4.50;;
11677;SDS011;5895;41.950;24.372;2023-05-18T12:42:09;4.07;;;3.42;;
11677;SDS011;5895;41.950;24.372;2023-05-18T12:44:37;5.55;;;3.78;;
11677;SDS011;5895;41.950;24.372;2023-05-18T12:47:05;5.25;;;3.80;;
11677;SDS011;5895;41.950;24.372;2023-05-18T12:49:35;12.05;;;4.80;;
11677;SDS011;5895;41.950;24.372;2023-05-18T12:52:09;6.22;;;5.63;;
11677;SDS011;5895;41.950;24.372;2023-05-18T12:54:46;6.85;;;5.82;;
11677;SDS011;5895;41.950;24.372;2023-05-18T12:57:22;4.60;;;4.20;;
11677;SDS011;5895;41.950;24.372;2023-05-18T12:59:55;4.85;;;4.40;;
11677;SDS011;5895;41.950;24.372;2023-05-18T13:02:27;5.55;;;4.78;;
11677;SDS011;5895;41.950;24.372;2023-05-18T13:05:01;9.10;;;7.72;;
11677;SDS011;5895;41.950;24.372;2023-05-18T13:07:31;10.88;;;7.63;;
11677;SDS011;5895;41.950;24.372;2023-05-18T13:10:00;8.90;;;7.15;;
11677;SDS011;5895;41.950;24.372;2023-05-18T13:12:37;8.73;;;7.30;;
11677;SDS011;5895;41.950;24.372;2023-05-18T13:15:09;13.13;;;7.75;;
11677;SDS011;5895;41.950;24.372;2023-05-18T13:17:37;12.57;;;7.30;;
11677;SDS011;5895;41.950;24.372;2023-05-18T13:20:11;7.88;;;7.07;;
11677;SDS011;5895;41.950;24.372;2023-05-18T13:22:41;8.75;;;7.85;;
11677;SDS011;5895;41.950;24.372;2023-05-18T13:25:08;7.90;;;6.95;;
11677;SDS011;5895;41.950;24.372;2023-05-18T13:27:36;7.93;;;7.13;;
11677;SDS011;5895;41.950;24.372;2023-05-18T13:30:04;9.25;;;8.27;;
11677;SDS011;5895;41.950;24.372;2023-05-18T13:32:33;20.42;;;9.48;;
11677;SDS011;5895;41.950;24.372;2023-05-18T13:35:00;11.40;;;9.70;;
11677;SDS011;5895;41.950;24.372;2023-05-18T13:37:28;10.50;;;8.65;;
11677;SDS011;5895;41.950;24.372;2023-05-18T13:39:56;8.75;;;7.85;;
11677;SDS011;5895;41.950;24.372;2023-05-18T13:42:24;9.23;;;8.25;;
11677;SDS011;5895;41.950;24.372;2023-05-18T13:44:51;11.55;;;8.38;;
11677;SDS011;5895;41.950;24.372;2023-05-18T13:47:18;8.88;;;7.97;;
11677;SDS011;5895;41.950;24.372;2023-05-18T13:49:45;7.28;;;6.68;;
11677;SDS011;5895;41.950;24.372;2023-05-18T13:52:12;8.80;;;7.45;;
11677;SDS011;5895;41.950;24.372;2023-05-18T13:54:39;8.43;;;7.35;;
11677;SDS011;5895;41.950;24.372;2023-05-18T13:57:08;8.80;;;7.93;;
11677;SDS011;5895;41.950;24.372;2023-05-18T13:59:35;11.18;;;7.95;;
11677;SDS011;5895;41.950;24.372;2023-05-18T14:02:02;10.55;;;8.25;;
11677;SDS011;5895;41.950;24.372;2023-05-18T14:04:29;10.77;;;9.77;;
11677;SDS011;5895;41.950;24.372;2023-05-18T14:06:57;11.60;;;10.50;;
11677;SDS011;5895;41.950;24.372;2023-05-18T14:09:24;12.30;;;10.98;;
11677;SDS011;5895;41.950;24.372;2023-05-18T14:11:52;11.30;;;10.18;;
11677;SDS011;5895;41.950;24.372;2023-05-18T14:14:21;10.88;;;9.77;;
11677;SDS011;5895;41.950;24.372;2023-05-18T14:16:48;10.48;;;9.38;;
11677;SDS011;5895;41.950;24.372;2023-05-18T14:19:15;9.85;;;8.43;;
11677;SDS011;5895;41.950;24.372;2023-05-18T14:21:42;12.25;;;9.35;;
11677;SDS011;5895;41.950;24.372;2023-05-18T14:24:09;23.80;;;9.30;;
11677;SDS011;5895;41.950;24.372;2023-05-18T14:26:39;13.07;;;9.07;;
11677;SDS011;5895;41.950;24.372;2023-05-18T14:29:06;13.20;;;9.38;;
11677;SDS011;5895;41.950;24.372;2023-05-18T14:31:35;29.98;;;10.70;;
11677;SDS011;5895;41.950;24.372;2023-05-18T14:34:02;9.55;;;8.65;;
11677;SDS011;5895;41.950;24.372;2023-05-18T14:36:29;12.05;;;9.40;;
11677;SDS011;5895;41.950;24.372;2023-05-18T14:38:56;8.15;;;7.30;;
11677;SDS011;5895;41.950;24.372;2023-05-18T14:41:23;15.27;;;10.95;;
11677;SDS011;5895;41.950;24.372;2023-05-18T14:43:50;12.23;;;9.00;;
11677;SDS011;5895;41.950;24.372;2023-05-18T14:46:18;9.63;;;8.73;;
11677;SDS011;5895;41.950;24.372;2023-05-18T14:48:47;7.85;;;7.05;;
11677;SDS011;5895;41.950;24.372;2023-05-18T14:51:14;7.72;;;7.03;;
11677;SDS011;5895;41.950;24.372;2023-05-18T14:53:42;9.25;;;8.35;;
11677;SDS011;5895;41.950;24.372;2023-05-18T14:56:10;11.43;;;10.23;;
11677;SDS011;5895;41.950;24.372;2023-05-18T14:58:37;14.20;;;11.40;;
11677;SDS011;5895;41.950;24.372;2023-05-18T15:01:04;10.40;;;8.25;;
11677;SDS011;5895;41.950;24.372;2023-05-18T15:03:31;10.43;;;9.32;;
11677;SDS011;5895;41.950;24.372;2023-05-18T15:06:00;10.27;;;9.18;;
11677;SDS011;5895;41.950;24.372;2023-05-18T15:08:27;9.20;;;8.10;;
11677;SDS011;5895;41.950;24.372;2023-05-18T15:10:54;23.08;;;16.23;;